sensor_id;sensor_type;location;lat;lon;timestamp;temperature;humidity
25945;SHT31;13742;49.306;8.636;2024-02-04T00:00:15;8.47;88.36
25945;SHT31;13742;49.306;8.636;2024-02-04T00:01:14;8.48;88.38
25945;SHT31;13742;49.306;8.636;2024-02-04T00:02:14;8.45;88.52
25945;SHT31;13742;49.306;8.636;2024-02-04T00:03:14;8.44;88.60
25945;SHT31;13742;49.306;8.636;2024-02-04T00:04:14;8.44;88.56
25945;SHT31;13742;49.306;8.636;2024-02-04T00:05:14;8.44;88.64
25945;SHT31;13742;49.306;8.636;2024-02-04T00:06:14;8.41;88.74
25945;SHT31;13742;49.306;8.636;2024-02-04T00:07:14;8.42;88.68
25945;SHT31;13742;49.306;8.636;2024-02-04T00:08:17;8.40;88.57
25945;SHT31;13742;49.306;8.636;2024-02-04T00:09:14;8.38;88.68
25945;SHT31;13742;49.306;8.636;2024-02-04T00:10:15;8.41;88.86
25945;SHT31;13742;49.306;8.636;2024-02-04T00:11:14;8.37;88.73
25945;SHT31;13742;49.306;8.636;2024-02-04T00:12:14;8.38;88.62
25945;SHT31;13742;49.306;8.636;2024-02-04T00:13:14;8.37;88.69
25945;SHT31;13742;49.306;8.636;2024-02-04T00:14:14;8.40;88.62
25945;SHT31;13742;49.306;8.636;2024-02-04T00:15:14;8.37;88.82
25945;SHT31;13742;49.306;8.636;2024-02-04T00:16:14;8.34;88.91
25945;SHT31;13742;49.306;8.636;2024-02-04T00:17:17;8.33;89.04
25945;SHT31;13742;49.306;8.636;2024-02-04T00:18:14;8.33;88.99
25945;SHT31;13742;49.306;8.636;2024-02-04T00:19:14;8.31;89.05
25945;SHT31;13742;49.306;8.636;2024-02-04T00:20:14;8.28;88.99
25945;SHT31;13742;49.306;8.636;2024-02-04T00:21:14;8.33;88.92
25945;SHT31;13742;49.306;8.636;2024-02-04T00:22:17;8.30;89.03
25945;SHT31;13742;49.306;8.636;2024-02-04T00:23:14;8.30;89.10
25945;SHT31;13742;49.306;8.636;2024-02-04T00:24:14;8.28;89.10
25945;SHT31;13742;49.306;8.636;2024-02-04T00:25:15;8.27;89.11
25945;SHT31;13742;49.306;8.636;2024-02-04T00:26:14;8.27;89.17
25945;SHT31;13742;49.306;8.636;2024-02-04T00:27:14;8.24;89.26
25945;SHT31;13742;49.306;8.636;2024-02-04T00:28:14;8.25;89.36
25945;SHT31;13742;49.306;8.636;2024-02-04T00:29:14;8.25;89.37
25945;SHT31;13742;49.306;8.636;2024-02-04T00:30:14;8.27;89.20
25945;SHT31;13742;49.306;8.636;2024-02-04T00:31:14;8.24;89.32
25945;SHT31;13742;49.306;8.636;2024-02-04T00:32:14;8.24;89.32
25945;SHT31;13742;49.306;8.636;2024-02-04T00:33:14;8.21;89.30
25945;SHT31;13742;49.306;8.636;2024-02-04T00:34:14;8.24;89.30
25945;SHT31;13742;49.306;8.636;2024-02-04T00:35:14;8.24;89.25
25945;SHT31;13742;49.306;8.636;2024-02-04T00:36:14;8.23;89.26
25945;SHT31;13742;49.306;8.636;2024-02-04T00:37:14;8.23;89.25
25945;SHT31;13742;49.306;8.636;2024-02-04T00:38:14;8.23;89.34
25945;SHT31;13742;49.306;8.636;2024-02-04T00:39:14;8.21;89.25
25945;SHT31;13742;49.306;8.636;2024-02-04T00:40:14;8.20;89.21
25945;SHT31;13742;49.306;8.636;2024-02-04T00:41:14;8.17;89.25
25945;SHT31;13742;49.306;8.636;2024-02-04T00:42:14;8.16;89.40
25945;SHT31;13742;49.306;8.636;2024-02-04T00:43:14;8.17;89.51
25945;SHT31;13742;49.306;8.636;2024-02-04T00:44:14;8.14;89.44
25945;SHT31;13742;49.306;8.636;2024-02-04T00:45:14;8.18;89.41
25945;SHT31;13742;49.306;8.636;2024-02-04T00:46:14;8.17;89.44
25945;SHT31;13742;49.306;8.636;2024-02-04T00:47:14;8.20;89.42
25945;SHT31;13742;49.306;8.636;2024-02-04T00:48:14;8.18;89.42
25945;SHT31;13742;49.306;8.636;2024-02-04T00:49:14;8.16;89.42
25945;SHT31;13742;49.306;8.636;2024-02-04T00:50:14;8.18;89.32
25945;SHT31;13742;49.306;8.636;2024-02-04T00:51:17;8.17;89.38
25945;SHT31;13742;49.306;8.636;2024-02-04T00:52:14;8.18;89.31
25945;SHT31;13742;49.306;8.636;2024-02-04T00:53:14;8.17;89.30
25945;SHT31;13742;49.306;8.636;2024-02-04T00:54:14;8.17;89.26
25945;SHT31;13742;49.306;8.636;2024-02-04T00:55:14;8.18;89.26
25945;SHT31;13742;49.306;8.636;2024-02-04T00:56:14;8.16;89.27
25945;SHT31;13742;49.306;8.636;2024-02-04T00:57:14;8.16;89.33
25945;SHT31;13742;49.306;8.636;2024-02-04T00:58:14;8.17;89.31
25945;SHT31;13742;49.306;8.636;2024-02-04T00:59:14;8.16;89.27
25945;SHT31;13742;49.306;8.636;2024-02-04T01:00:14;8.18;89.25
25945;SHT31;13742;49.306;8.636;2024-02-04T01:01:14;8.16;89.19
25945;SHT31;13742;49.306;8.636;2024-02-04T01:02:14;8.17;89.31
25945;SHT31;13742;49.306;8.636;2024-02-04T01:03:14;8.14;89.18
25945;SHT31;13742;49.306;8.636;2024-02-04T01:04:14;8.14;89.39
25945;SHT31;13742;49.306;8.636;2024-02-04T01:05:14;8.16;89.34
25945;SHT31;13742;49.306;8.636;2024-02-04T01:06:14;8.14;89.35
25945;SHT31;13742;49.306;8.636;2024-02-04T01:07:14;8.14;89.29
25945;SHT31;13742;49.306;8.636;2024-02-04T01:08:14;8.13;89.28
25945;SHT31;13742;49.306;8.636;2024-02-04T01:09:14;8.10;89.44
25945;SHT31;13742;49.306;8.636;2024-02-04T01:10:14;8.10;89.49
25945;SHT31;13742;49.306;8.636;2024-02-04T01:11:14;8.10;89.38
25945;SHT31;13742;49.306;8.636;2024-02-04T01:12:14;8.10;89.41
25945;SHT31;13742;49.306;8.636;2024-02-04T01:13:14;8.10;89.36
25945;SHT31;13742;49.306;8.636;2024-02-04T01:14:14;8.07;89.44
25945;SHT31;13742;49.306;8.636;2024-02-04T01:15:14;8.07;89.38
25945;SHT31;13742;49.306;8.636;2024-02-04T01:16:14;8.04;89.41
25945;SHT31;13742;49.306;8.636;2024-02-04T01:17:14;8.07;89.43
25945;SHT31;13742;49.306;8.636;2024-02-04T01:18:14;8.09;89.28
25945;SHT31;13742;49.306;8.636;2024-02-04T01:19:14;8.09;89.32
25945;SHT31;13742;49.306;8.636;2024-02-04T01:20:14;8.04;89.28
25945;SHT31;13742;49.306;8.636;2024-02-04T01:21:14;8.03;89.30
25945;SHT31;13742;49.306;8.636;2024-02-04T01:22:14;8.06;89.35
25945;SHT31;13742;49.306;8.636;2024-02-04T01:23:14;8.03;89.30
25945;SHT31;13742;49.306;8.636;2024-02-04T01:24:14;8.04;89.26
25945;SHT31;13742;49.306;8.636;2024-02-04T01:25:14;8.03;89.31
25945;SHT31;13742;49.306;8.636;2024-02-04T01:26:15;8.03;89.26
25945;SHT31;13742;49.306;8.636;2024-02-04T01:27:14;8.02;89.32
25945;SHT31;13742;49.306;8.636;2024-02-04T01:28:14;8.00;89.27
25945;SHT31;13742;49.306;8.636;2024-02-04T01:29:14;8.03;89.23
25945;SHT31;13742;49.306;8.636;2024-02-04T01:30:14;8.04;89.18
25945;SHT31;13742;49.306;8.636;2024-02-04T01:31:14;8.04;89.11
25945;SHT31;13742;49.306;8.636;2024-02-04T01:32:14;8.04;89.06
25945;SHT31;13742;49.306;8.636;2024-02-04T01:33:14;8.04;89.05
25945;SHT31;13742;49.306;8.636;2024-02-04T01:34:14;8.03;89.10
25945;SHT31;13742;49.306;8.636;2024-02-04T01:35:15;8.03;89.07
25945;SHT31;13742;49.306;8.636;2024-02-04T01:36:14;8.03;89.15
25945;SHT31;13742;49.306;8.636;2024-02-04T01:37:14;8.02;89.04
25945;SHT31;13742;49.306;8.636;2024-02-04T01:38:14;8.02;89.02
25945;SHT31;13742;49.306;8.636;2024-02-04T01:39:14;8.03;88.95
25945;SHT31;13742;49.306;8.636;2024-02-04T01:40:14;8.02;88.89
25945;SHT31;13742;49.306;8.636;2024-02-04T01:41:14;8.00;89.01
25945;SHT31;13742;49.306;8.636;2024-02-04T01:42:14;8.00;88.94
25945;SHT31;13742;49.306;8.636;2024-02-04T01:43:14;8.00;88.94
25945;SHT31;13742;49.306;8.636;2024-02-04T01:44:16;7.99;88.99
25945;SHT31;13742;49.306;8.636;2024-02-04T01:45:14;8.02;88.99
25945;SHT31;13742;49.306;8.636;2024-02-04T01:46:14;8.00;88.99
25945;SHT31;13742;49.306;8.636;2024-02-04T01:47:14;8.00;89.03
25945;SHT31;13742;49.306;8.636;2024-02-04T01:48:15;7.97;88.98
25945;SHT31;13742;49.306;8.636;2024-02-04T01:49:14;8.00;89.03
25945;SHT31;13742;49.306;8.636;2024-02-04T01:50:14;7.99;89.10
25945;SHT31;13742;49.306;8.636;2024-02-04T01:51:14;7.96;89.06
25945;SHT31;13742;49.306;8.636;2024-02-04T01:52:14;7.96;88.97
25945;SHT31;13742;49.306;8.636;2024-02-04T01:53:15;7.97;89.02
25945;SHT31;13742;49.306;8.636;2024-02-04T01:54:14;7.94;89.05
25945;SHT31;13742;49.306;8.636;2024-02-04T01:55:14;7.92;89.07
25945;SHT31;13742;49.306;8.636;2024-02-04T01:56:14;7.93;89.12
25945;SHT31;13742;49.306;8.636;2024-02-04T01:57:14;7.94;89.09
25945;SHT31;13742;49.306;8.636;2024-02-04T01:58:14;7.94;89.09
25945;SHT31;13742;49.306;8.636;2024-02-04T01:59:14;7.94;88.93
25945;SHT31;13742;49.306;8.636;2024-02-04T02:00:14;7.96;88.98
25945;SHT31;13742;49.306;8.636;2024-02-04T02:01:14;7.92;88.91
25945;SHT31;13742;49.306;8.636;2024-02-04T02:02:14;7.92;88.96
25945;SHT31;13742;49.306;8.636;2024-02-04T02:03:15;7.89;89.03
25945;SHT31;13742;49.306;8.636;2024-02-04T02:04:14;7.89;89.01
25945;SHT31;13742;49.306;8.636;2024-02-04T02:05:14;7.88;89.01
25945;SHT31;13742;49.306;8.636;2024-02-04T02:06:14;7.88;89.00
25945;SHT31;13742;49.306;8.636;2024-02-04T02:07:17;7.88;89.07
25945;SHT31;13742;49.306;8.636;2024-02-04T02:08:14;7.86;89.02
25945;SHT31;13742;49.306;8.636;2024-02-04T02:09:15;7.88;89.05
25945;SHT31;13742;49.306;8.636;2024-02-04T02:10:14;7.85;89.05
25945;SHT31;13742;49.306;8.636;2024-02-04T02:11:21;7.88;89.08
25945;SHT31;13742;49.306;8.636;2024-02-04T02:12:18;7.85;88.97
25945;SHT31;13742;49.306;8.636;2024-02-04T02:14:20;7.82;88.96
25945;SHT31;13742;49.306;8.636;2024-02-04T02:15:17;7.83;89.05
25945;SHT31;13742;49.306;8.636;2024-02-04T02:16:18;7.83;89.09
25945;SHT31;13742;49.306;8.636;2024-02-04T02:17:24;7.83;89.03
25945;SHT31;13742;49.306;8.636;2024-02-04T02:18:21;7.83;88.93
25945;SHT31;13742;49.306;8.636;2024-02-04T02:19:29;7.83;88.89
25945;SHT31;13742;49.306;8.636;2024-02-04T02:20:27;7.82;88.82
25945;SHT31;13742;49.306;8.636;2024-02-04T02:23:21;7.85;88.94
25945;SHT31;13742;49.306;8.636;2024-02-04T02:25:14;7.85;88.81
25945;SHT31;13742;49.306;8.636;2024-02-04T02:26:15;7.81;88.78
25945;SHT31;13742;49.306;8.636;2024-02-04T02:27:14;7.83;88.81
25945;SHT31;13742;49.306;8.636;2024-02-04T02:28:14;7.81;88.72
25945;SHT31;13742;49.306;8.636;2024-02-04T02:29:14;7.85;88.77
25945;SHT31;13742;49.306;8.636;2024-02-04T02:30:14;7.85;88.77
25945;SHT31;13742;49.306;8.636;2024-02-04T02:31:14;7.82;88.77
25945;SHT31;13742;49.306;8.636;2024-02-04T02:32:14;7.83;88.77
25945;SHT31;13742;49.306;8.636;2024-02-04T02:33:14;7.82;88.73
25945;SHT31;13742;49.306;8.636;2024-02-04T02:34:14;7.86;88.66
25945;SHT31;13742;49.306;8.636;2024-02-04T02:35:14;7.82;88.67
25945;SHT31;13742;49.306;8.636;2024-02-04T02:36:19;7.81;88.57
25945;SHT31;13742;49.306;8.636;2024-02-04T02:37:40;7.81;88.53
25945;SHT31;13742;49.306;8.636;2024-02-04T02:39:21;7.85;88.37
25945;SHT31;13742;49.306;8.636;2024-02-04T02:41:16;7.82;88.23
25945;SHT31;13742;49.306;8.636;2024-02-04T02:42:14;7.83;88.33
25945;SHT31;13742;49.306;8.636;2024-02-04T02:43:15;7.82;88.16
25945;SHT31;13742;49.306;8.636;2024-02-04T02:44:14;7.83;88.04
25945;SHT31;13742;49.306;8.636;2024-02-04T02:45:15;7.83;87.92
25945;SHT31;13742;49.306;8.636;2024-02-04T02:46:14;7.79;88.05
25945;SHT31;13742;49.306;8.636;2024-02-04T02:47:15;7.82;87.88
25945;SHT31;13742;49.306;8.636;2024-02-04T02:48:14;7.82;87.91
25945;SHT31;13742;49.306;8.636;2024-02-04T02:49:14;7.82;87.90
25945;SHT31;13742;49.306;8.636;2024-02-04T02:50:14;7.81;87.70
25945;SHT31;13742;49.306;8.636;2024-02-04T02:51:14;7.81;87.74
25945;SHT31;13742;49.306;8.636;2024-02-04T02:52:14;7.79;87.77
25945;SHT31;13742;49.306;8.636;2024-02-04T02:53:14;7.78;87.69
25945;SHT31;13742;49.306;8.636;2024-02-04T02:54:14;7.78;87.71
25945;SHT31;13742;49.306;8.636;2024-02-04T02:55:14;7.81;87.59
25945;SHT31;13742;49.306;8.636;2024-02-04T02:56:14;7.78;87.55
25945;SHT31;13742;49.306;8.636;2024-02-04T02:57:14;7.81;87.50
25945;SHT31;13742;49.306;8.636;2024-02-04T02:58:14;7.78;87.48
25945;SHT31;13742;49.306;8.636;2024-02-04T02:59:14;7.78;87.53
25945;SHT31;13742;49.306;8.636;2024-02-04T03:00:14;7.78;87.50
25945;SHT31;13742;49.306;8.636;2024-02-04T03:01:14;7.79;87.53
25945;SHT31;13742;49.306;8.636;2024-02-04T03:02:14;7.79;87.43
25945;SHT31;13742;49.306;8.636;2024-02-04T03:03:14;7.78;87.44
25945;SHT31;13742;49.306;8.636;2024-02-04T03:04:14;7.78;87.45
25945;SHT31;13742;49.306;8.636;2024-02-04T03:05:17;7.76;87.38
25945;SHT31;13742;49.306;8.636;2024-02-04T03:06:14;7.73;87.30
25945;SHT31;13742;49.306;8.636;2024-02-04T03:07:14;7.69;87.37
25945;SHT31;13742;49.306;8.636;2024-02-04T03:08:14;7.72;87.38
25945;SHT31;13742;49.306;8.636;2024-02-04T03:09:14;7.75;87.32
25945;SHT31;13742;49.306;8.636;2024-02-04T03:10:14;7.76;87.35
25945;SHT31;13742;49.306;8.636;2024-02-04T03:11:14;7.76;87.27
25945;SHT31;13742;49.306;8.636;2024-02-04T03:12:14;7.73;87.38
25945;SHT31;13742;49.306;8.636;2024-02-04T03:13:14;7.73;87.33
25945;SHT31;13742;49.306;8.636;2024-02-04T03:14:16;7.75;87.37
25945;SHT31;13742;49.306;8.636;2024-02-04T03:15:14;7.75;87.34
25945;SHT31;13742;49.306;8.636;2024-02-04T03:16:14;7.75;87.28
25945;SHT31;13742;49.306;8.636;2024-02-04T03:17:14;7.70;87.22
25945;SHT31;13742;49.306;8.636;2024-02-04T03:18:14;7.73;87.21
25945;SHT31;13742;49.306;8.636;2024-02-04T03:19:14;7.73;87.23
25945;SHT31;13742;49.306;8.636;2024-02-04T03:20:14;7.76;87.24
25945;SHT31;13742;49.306;8.636;2024-02-04T03:21:14;7.73;87.22
25945;SHT31;13742;49.306;8.636;2024-02-04T03:22:14;7.75;87.19
25945;SHT31;13742;49.306;8.636;2024-02-04T03:23:14;7.69;87.24
25945;SHT31;13742;49.306;8.636;2024-02-04T03:24:14;7.72;87.37
25945;SHT31;13742;49.306;8.636;2024-02-04T03:25:14;7.70;87.34
25945;SHT31;13742;49.306;8.636;2024-02-04T03:26:17;7.70;87.39
25945;SHT31;13742;49.306;8.636;2024-02-04T03:27:16;7.72;87.37
25945;SHT31;13742;49.306;8.636;2024-02-04T03:28:14;7.73;87.41
25945;SHT31;13742;49.306;8.636;2024-02-04T03:29:14;7.70;87.32
25945;SHT31;13742;49.306;8.636;2024-02-04T03:30:14;7.70;87.44
25945;SHT31;13742;49.306;8.636;2024-02-04T03:31:19;7.67;87.42
25945;SHT31;13742;49.306;8.636;2024-02-04T03:32:14;7.73;87.46
25945;SHT31;13742;49.306;8.636;2024-02-04T03:33:14;7.69;87.39
25945;SHT31;13742;49.306;8.636;2024-02-04T03:34:14;7.70;87.41
25945;SHT31;13742;49.306;8.636;2024-02-04T03:35:14;7.72;87.54
25945;SHT31;13742;49.306;8.636;2024-02-04T03:36:17;7.72;87.49
25945;SHT31;13742;49.306;8.636;2024-02-04T03:37:14;7.72;87.49
25945;SHT31;13742;49.306;8.636;2024-02-04T03:38:14;7.70;87.45
25945;SHT31;13742;49.306;8.636;2024-02-04T03:39:14;7.70;87.40
25945;SHT31;13742;49.306;8.636;2024-02-04T03:40:14;7.72;87.46
25945;SHT31;13742;49.306;8.636;2024-02-04T03:41:14;7.69;87.49
25945;SHT31;13742;49.306;8.636;2024-02-04T03:42:14;7.73;87.50
25945;SHT31;13742;49.306;8.636;2024-02-04T03:43:14;7.73;87.48
25945;SHT31;13742;49.306;8.636;2024-02-04T03:44:14;7.70;87.50
25945;SHT31;13742;49.306;8.636;2024-02-04T03:45:14;7.75;87.57
25945;SHT31;13742;49.306;8.636;2024-02-04T03:46:15;7.75;87.54
25945;SHT31;13742;49.306;8.636;2024-02-04T03:47:14;7.75;87.54
25945;SHT31;13742;49.306;8.636;2024-02-04T03:48:14;7.75;87.61
25945;SHT31;13742;49.306;8.636;2024-02-04T03:49:14;7.75;87.59
25945;SHT31;13742;49.306;8.636;2024-02-04T03:50:14;7.73;87.54
25945;SHT31;13742;49.306;8.636;2024-02-04T03:51:20;7.73;87.55
25945;SHT31;13742;49.306;8.636;2024-02-04T03:52:14;7.78;87.48
25945;SHT31;13742;49.306;8.636;2024-02-04T03:53:14;7.73;87.54
25945;SHT31;13742;49.306;8.636;2024-02-04T03:54:14;7.75;87.54
25945;SHT31;13742;49.306;8.636;2024-02-04T03:55:14;7.78;87.60
25945;SHT31;13742;49.306;8.636;2024-02-04T03:56:14;7.76;87.65
25945;SHT31;13742;49.306;8.636;2024-02-04T03:57:14;7.73;87.61
25945;SHT31;13742;49.306;8.636;2024-02-04T03:58:14;7.75;87.69
25945;SHT31;13742;49.306;8.636;2024-02-04T03:59:14;7.79;87.66
25945;SHT31;13742;49.306;8.636;2024-02-04T04:00:15;7.79;87.66
25945;SHT31;13742;49.306;8.636;2024-02-04T04:01:14;7.76;87.79
25945;SHT31;13742;49.306;8.636;2024-02-04T04:02:14;7.78;87.82
25945;SHT31;13742;49.306;8.636;2024-02-04T04:03:14;7.79;87.78
25945;SHT31;13742;49.306;8.636;2024-02-04T04:04:14;7.79;87.78
25945;SHT31;13742;49.306;8.636;2024-02-04T04:05:14;7.81;87.92
25945;SHT31;13742;49.306;8.636;2024-02-04T04:06:14;7.79;88.02
25945;SHT31;13742;49.306;8.636;2024-02-04T04:07:14;7.78;87.99
25945;SHT31;13742;49.306;8.636;2024-02-04T04:08:14;7.82;88.05
25945;SHT31;13742;49.306;8.636;2024-02-04T04:09:14;7.79;88.05
25945;SHT31;13742;49.306;8.636;2024-02-04T04:10:14;7.82;88.09
25945;SHT31;13742;49.306;8.636;2024-02-04T04:11:14;7.83;88.47
25945;SHT31;13742;49.306;8.636;2024-02-04T04:12:14;7.83;88.64
25945;SHT31;13742;49.306;8.636;2024-02-04T04:13:14;7.86;88.72
25945;SHT31;13742;49.306;8.636;2024-02-04T04:14:14;7.88;88.82
25945;SHT31;13742;49.306;8.636;2024-02-04T04:15:14;7.89;88.81
25945;SHT31;13742;49.306;8.636;2024-02-04T04:16:14;7.92;88.79
25945;SHT31;13742;49.306;8.636;2024-02-04T04:17:14;7.92;88.97
25945;SHT31;13742;49.306;8.636;2024-02-04T04:18:14;7.92;88.94
25945;SHT31;13742;49.306;8.636;2024-02-04T04:19:14;7.94;89.03
25945;SHT31;13742;49.306;8.636;2024-02-04T04:20:14;7.97;88.86
25945;SHT31;13742;49.306;8.636;2024-02-04T04:21:14;7.97;88.90
25945;SHT31;13742;49.306;8.636;2024-02-04T04:22:14;7.99;88.94
25945;SHT31;13742;49.306;8.636;2024-02-04T04:23:14;7.97;88.79
25945;SHT31;13742;49.306;8.636;2024-02-04T04:24:15;7.99;89.07
25945;SHT31;13742;49.306;8.636;2024-02-04T04:25:14;8.00;89.00
25945;SHT31;13742;49.306;8.636;2024-02-04T04:26:14;8.02;89.08
25945;SHT31;13742;49.306;8.636;2024-02-04T04:27:14;7.99;89.00
25945;SHT31;13742;49.306;8.636;2024-02-04T04:28:14;8.00;89.08
25945;SHT31;13742;49.306;8.636;2024-02-04T04:29:14;8.02;88.91
25945;SHT31;13742;49.306;8.636;2024-02-04T04:30:14;8.00;89.02
25945;SHT31;13742;49.306;8.636;2024-02-04T04:31:14;8.02;89.01
25945;SHT31;13742;49.306;8.636;2024-02-04T04:32:14;8.03;88.99
25945;SHT31;13742;49.306;8.636;2024-02-04T04:33:14;8.04;88.97
25945;SHT31;13742;49.306;8.636;2024-02-04T04:34:14;8.04;88.97
25945;SHT31;13742;49.306;8.636;2024-02-04T04:35:14;8.06;89.06
25945;SHT31;13742;49.306;8.636;2024-02-04T04:36:14;8.02;89.07
25945;SHT31;13742;49.306;8.636;2024-02-04T04:37:14;8.02;89.16
25945;SHT31;13742;49.306;8.636;2024-02-04T04:38:14;8.03;89.16
25945;SHT31;13742;49.306;8.636;2024-02-04T04:39:14;8.06;89.06
25945;SHT31;13742;49.306;8.636;2024-02-04T04:40:14;8.06;89.06
25945;SHT31;13742;49.306;8.636;2024-02-04T04:41:14;8.07;89.04
25945;SHT31;13742;49.306;8.636;2024-02-04T04:42:14;8.09;89.06
25945;SHT31;13742;49.306;8.636;2024-02-04T04:43:14;8.07;89.05
25945;SHT31;13742;49.306;8.636;2024-02-04T04:44:14;8.06;89.02
25945;SHT31;13742;49.306;8.636;2024-02-04T04:45:15;8.06;88.94
25945;SHT31;13742;49.306;8.636;2024-02-04T04:46:14;8.06;88.92
25945;SHT31;13742;49.306;8.636;2024-02-04T04:47:15;8.04;88.90
25945;SHT31;13742;49.306;8.636;2024-02-04T04:48:14;8.06;88.96
25945;SHT31;13742;49.306;8.636;2024-02-04T04:49:14;8.06;88.81
25945;SHT31;13742;49.306;8.636;2024-02-04T04:50:14;8.07;88.71
25945;SHT31;13742;49.306;8.636;2024-02-04T04:51:14;8.07;88.78
25945;SHT31;13742;49.306;8.636;2024-02-04T04:52:14;8.09;88.67
25945;SHT31;13742;49.306;8.636;2024-02-04T04:53:14;8.07;88.63
25945;SHT31;13742;49.306;8.636;2024-02-04T04:54:14;8.07;88.68
25945;SHT31;13742;49.306;8.636;2024-02-04T04:55:14;8.10;88.75
25945;SHT31;13742;49.306;8.636;2024-02-04T04:56:14;8.06;88.74
25945;SHT31;13742;49.306;8.636;2024-02-04T04:57:14;8.07;88.58
25945;SHT31;13742;49.306;8.636;2024-02-04T04:58:14;8.09;88.58
25945;SHT31;13742;49.306;8.636;2024-02-04T04:59:15;8.10;88.56
25945;SHT31;13742;49.306;8.636;2024-02-04T05:00:15;8.07;88.47
25945;SHT31;13742;49.306;8.636;2024-02-04T05:01:14;8.10;88.51
25945;SHT31;13742;49.306;8.636;2024-02-04T05:02:14;8.09;88.49
25945;SHT31;13742;49.306;8.636;2024-02-04T05:03:14;8.07;88.52
25945;SHT31;13742;49.306;8.636;2024-02-04T05:04:17;8.07;88.50
25945;SHT31;13742;49.306;8.636;2024-02-04T05:05:14;8.09;88.52
25945;SHT31;13742;49.306;8.636;2024-02-04T05:06:14;8.07;88.57
25945;SHT31;13742;49.306;8.636;2024-02-04T05:07:14;8.07;88.58
25945;SHT31;13742;49.306;8.636;2024-02-04T05:08:14;8.07;88.55
25945;SHT31;13742;49.306;8.636;2024-02-04T05:09:14;8.09;88.50
25945;SHT31;13742;49.306;8.636;2024-02-04T05:10:14;8.07;88.53
25945;SHT31;13742;49.306;8.636;2024-02-04T05:11:14;8.09;88.46
25945;SHT31;13742;49.306;8.636;2024-02-04T05:12:14;8.10;88.47
25945;SHT31;13742;49.306;8.636;2024-02-04T05:13:14;8.09;88.49
25945;SHT31;13742;49.306;8.636;2024-02-04T05:14:14;8.12;88.47
25945;SHT31;13742;49.306;8.636;2024-02-04T05:15:14;8.12;88.59
25945;SHT31;13742;49.306;8.636;2024-02-04T05:16:14;8.10;88.54
25945;SHT31;13742;49.306;8.636;2024-02-04T05:17:14;8.09;88.42
25945;SHT31;13742;49.306;8.636;2024-02-04T05:18:14;8.09;88.60
25945;SHT31;13742;49.306;8.636;2024-02-04T05:19:14;8.10;88.58
25945;SHT31;13742;49.306;8.636;2024-02-04T05:20:14;8.10;88.64
25945;SHT31;13742;49.306;8.636;2024-02-04T05:21:14;8.10;88.64
25945;SHT31;13742;49.306;8.636;2024-02-04T05:22:14;8.07;88.63
25945;SHT31;13742;49.306;8.636;2024-02-04T05:23:14;8.10;88.60
25945;SHT31;13742;49.306;8.636;2024-02-04T05:24:14;8.10;88.61
25945;SHT31;13742;49.306;8.636;2024-02-04T05:25:14;8.09;88.63
25945;SHT31;13742;49.306;8.636;2024-02-04T05:26:17;8.09;88.55
25945;SHT31;13742;49.306;8.636;2024-02-04T05:27:14;8.10;88.58
25945;SHT31;13742;49.306;8.636;2024-02-04T05:28:14;8.09;88.58
25945;SHT31;13742;49.306;8.636;2024-02-04T05:29:14;8.12;88.57
25945;SHT31;13742;49.306;8.636;2024-02-04T05:30:14;8.10;88.61
25945;SHT31;13742;49.306;8.636;2024-02-04T05:31:14;8.07;88.61
25945;SHT31;13742;49.306;8.636;2024-02-04T05:32:14;8.10;88.64
25945;SHT31;13742;49.306;8.636;2024-02-04T05:33:14;8.10;88.64
25945;SHT31;13742;49.306;8.636;2024-02-04T05:34:14;8.10;88.66
25945;SHT31;13742;49.306;8.636;2024-02-04T05:35:14;8.09;88.64
25945;SHT31;13742;49.306;8.636;2024-02-04T05:36:14;8.09;88.60
25945;SHT31;13742;49.306;8.636;2024-02-04T05:37:14;8.09;88.63
25945;SHT31;13742;49.306;8.636;2024-02-04T05:38:14;8.12;88.61
25945;SHT31;13742;49.306;8.636;2024-02-04T05:39:15;8.09;88.70
25945;SHT31;13742;49.306;8.636;2024-02-04T05:40:17;8.07;88.62
25945;SHT31;13742;49.306;8.636;2024-02-04T05:41:14;8.07;88.62
25945;SHT31;13742;49.306;8.636;2024-02-04T05:42:14;8.09;88.55
25945;SHT31;13742;49.306;8.636;2024-02-04T05:43:14;8.07;88.47
25945;SHT31;13742;49.306;8.636;2024-02-04T05:44:14;8.09;88.45
25945;SHT31;13742;49.306;8.636;2024-02-04T05:45:14;8.09;88.33
25945;SHT31;13742;49.306;8.636;2024-02-04T05:46:15;8.06;88.31
25945;SHT31;13742;49.306;8.636;2024-02-04T05:47:14;8.09;88.25
25945;SHT31;13742;49.306;8.636;2024-02-04T05:48:14;8.06;88.41
25945;SHT31;13742;49.306;8.636;2024-02-04T05:49:14;8.07;88.42
25945;SHT31;13742;49.306;8.636;2024-02-04T05:50:14;8.06;88.37
25945;SHT31;13742;49.306;8.636;2024-02-04T05:51:14;8.04;88.36
25945;SHT31;13742;49.306;8.636;2024-02-04T05:52:14;8.04;88.33
25945;SHT31;13742;49.306;8.636;2024-02-04T05:53:14;8.04;88.28
25945;SHT31;13742;49.306;8.636;2024-02-04T05:54:14;8.03;88.21
25945;SHT31;13742;49.306;8.636;2024-02-04T05:55:14;8.04;88.03
25945;SHT31;13742;49.306;8.636;2024-02-04T05:56:14;8.00;88.01
25945;SHT31;13742;49.306;8.636;2024-02-04T05:57:14;8.00;87.88
25945;SHT31;13742;49.306;8.636;2024-02-04T05:58:14;8.03;87.70
25945;SHT31;13742;49.306;8.636;2024-02-04T05:59:15;7.99;87.62
25945;SHT31;13742;49.306;8.636;2024-02-04T06:00:15;7.99;87.59
25945;SHT31;13742;49.306;8.636;2024-02-04T06:01:15;7.99;87.54
25945;SHT31;13742;49.306;8.636;2024-02-04T06:02:14;7.99;87.56
25945;SHT31;13742;49.306;8.636;2024-02-04T06:03:14;7.97;87.59
25945;SHT31;13742;49.306;8.636;2024-02-04T06:04:14;7.94;87.63
25945;SHT31;13742;49.306;8.636;2024-02-04T06:05:14;7.97;87.62
25945;SHT31;13742;49.306;8.636;2024-02-04T06:06:17;7.96;87.62
25945;SHT31;13742;49.306;8.636;2024-02-04T06:07:14;7.93;87.55
25945;SHT31;13742;49.306;8.636;2024-02-04T06:08:14;7.94;87.48
25945;SHT31;13742;49.306;8.636;2024-02-04T06:09:14;7.92;87.53
25945;SHT31;13742;49.306;8.636;2024-02-04T06:10:14;7.93;87.53
25945;SHT31;13742;49.306;8.636;2024-02-04T06:11:14;7.92;87.56
25945;SHT31;13742;49.306;8.636;2024-02-04T06:12:14;7.92;87.58
25945;SHT31;13742;49.306;8.636;2024-02-04T06:13:14;7.92;87.63
25945;SHT31;13742;49.306;8.636;2024-02-04T06:14:14;7.92;87.69
25945;SHT31;13742;49.306;8.636;2024-02-04T06:15:15;7.92;87.66
25945;SHT31;13742;49.306;8.636;2024-02-04T06:16:14;7.90;87.58
25945;SHT31;13742;49.306;8.636;2024-02-04T06:17:14;7.90;87.67
25945;SHT31;13742;49.306;8.636;2024-02-04T06:18:14;7.90;87.63
25945;SHT31;13742;49.306;8.636;2024-02-04T06:19:14;7.89;87.71
25945;SHT31;13742;49.306;8.636;2024-02-04T06:20:14;7.88;87.78
25945;SHT31;13742;49.306;8.636;2024-02-04T06:21:14;7.85;87.84
25945;SHT31;13742;49.306;8.636;2024-02-04T06:22:15;7.85;87.87
25945;SHT31;13742;49.306;8.636;2024-02-04T06:23:14;7.85;87.90
25945;SHT31;13742;49.306;8.636;2024-02-04T06:24:14;7.85;87.93
25945;SHT31;13742;49.306;8.636;2024-02-04T06:25:14;7.86;87.91
25945;SHT31;13742;49.306;8.636;2024-02-04T06:26:14;7.88;87.95
25945;SHT31;13742;49.306;8.636;2024-02-04T06:27:14;7.86;88.00
25945;SHT31;13742;49.306;8.636;2024-02-04T06:28:14;7.86;88.07
25945;SHT31;13742;49.306;8.636;2024-02-04T06:29:14;7.85;88.10
25945;SHT31;13742;49.306;8.636;2024-02-04T06:30:14;7.86;88.13